sensor_id;sensor_type;location;lat;lon;timestamp;P1;durP1;ratioP1;P2;durP2;ratioP2
73869;SDS011;64924;42.140;24.762;2023-12-20T00:02:08;70.75;;;39.33;;
73869;SDS011;64924;42.140;24.762;2023-12-20T00:04:33;65.70;;;38.75;;
73869;SDS011;64924;42.140;24.762;2023-12-20T00:06:59;70.65;;;39.53;;
73869;SDS011;64924;42.140;24.762;2023-12-20T00:09:24;65.50;;;39.25;;
73869;SDS011;64924;42.140;24.762;2023-12-20T00:11:50;69.93;;;40.08;;
73869;SDS011;64924;42.140;24.762;2023-12-20T00:14:15;73.53;;;40.42;;
73869;SDS011;64924;42.140;24.762;2023-12-20T00:16:41;64.75;;;38.25;;
73869;SDS011;64924;42.140;24.762;2023-12-20T00:19:06;65.07;;;38.70;;
73869;SDS011;64924;42.140;24.762;2023-12-20T00:21:32;68.38;;;40.33;;
73869;SDS011;64924;42.140;24.762;2023-12-20T00:23:58;70.50;;;40.47;;
73869;SDS011;64924;42.140;24.762;2023-12-20T00:26:23;74.05;;;38.85;;
73869;SDS011;64924;42.140;24.762;2023-12-20T00:28:49;81.47;;;39.33;;
73869;SDS011;64924;42.140;24.762;2023-12-20T00:31:14;79.13;;;38.00;;
73869;SDS011;64924;42.140;24.762;2023-12-20T00:33:39;65.72;;;36.53;;
73869;SDS011;64924;42.140;24.762;2023-12-20T00:36:09;65.13;;;36.75;;
73869;SDS011;64924;42.140;24.762;2023-12-20T00:38:35;63.15;;;32.33;;
73869;SDS011;64924;42.140;24.762;2023-12-20T00:41:00;58.30;;;34.35;;
73869;SDS011;64924;42.140;24.762;2023-12-20T00:43:26;67.55;;;34.30;;
73869;SDS011;64924;42.140;24.762;2023-12-20T00:45:51;52.28;;;28.08;;
73869;SDS011;64924;42.140;24.762;2023-12-20T00:48:17;51.33;;;26.98;;
73869;SDS011;64924;42.140;24.762;2023-12-20T00:50:42;52.92;;;27.98;;
73869;SDS011;64924;42.140;24.762;2023-12-20T00:53:08;52.85;;;28.83;;
73869;SDS011;64924;42.140;24.762;2023-12-20T00:55:33;45.05;;;24.67;;
73869;SDS011;64924;42.140;24.762;2023-12-20T00:57:59;43.70;;;23.65;;
73869;SDS011;64924;42.140;24.762;2023-12-20T01:00:25;41.75;;;22.88;;
73869;SDS011;64924;42.140;24.762;2023-12-20T01:02:50;45.63;;;24.48;;
73869;SDS011;64924;42.140;24.762;2023-12-20T01:05:17;41.60;;;23.00;;
73869;SDS011;64924;42.140;24.762;2023-12-20T01:07:43;35.55;;;19.80;;
73869;SDS011;64924;42.140;24.762;2023-12-20T01:10:08;36.15;;;19.65;;
73869;SDS011;64924;42.140;24.762;2023-12-20T01:12:35;36.53;;;20.45;;
73869;SDS011;64924;42.140;24.762;2023-12-20T01:15:02;35.92;;;20.98;;
73869;SDS011;64924;42.140;24.762;2023-12-20T01:17:27;39.13;;;21.38;;
73869;SDS011;64924;42.140;24.762;2023-12-20T01:19:53;38.55;;;22.85;;
73869;SDS011;64924;42.140;24.762;2023-12-20T01:22:18;33.80;;;19.88;;
73869;SDS011;64924;42.140;24.762;2023-12-20T01:24:44;38.92;;;20.30;;
73869;SDS011;64924;42.140;24.762;2023-12-20T01:27:09;41.13;;;22.08;;
73869;SDS011;64924;42.140;24.762;2023-12-20T01:29:35;35.80;;;20.75;;
73869;SDS011;64924;42.140;24.762;2023-12-20T01:32:00;40.65;;;23.73;;
73869;SDS011;64924;42.140;24.762;2023-12-20T01:34:26;44.72;;;25.52;;
73869;SDS011;64924;42.140;24.762;2023-12-20T01:36:51;48.72;;;27.15;;
73869;SDS011;64924;42.140;24.762;2023-12-20T01:39:17;44.88;;;24.33;;
73869;SDS011;64924;42.140;24.762;2023-12-20T01:41:43;46.33;;;25.90;;
73869;SDS011;64924;42.140;24.762;2023-12-20T01:44:08;47.78;;;25.25;;
73869;SDS011;64924;42.140;24.762;2023-12-20T01:46:34;45.53;;;24.65;;
73869;SDS011;64924;42.140;24.762;2023-12-20T01:48:59;43.28;;;25.15;;
73869;SDS011;64924;42.140;24.762;2023-12-20T01:51:25;48.00;;;28.33;;
73869;SDS011;64924;42.140;24.762;2023-12-20T01:53:52;49.88;;;26.33;;
73869;SDS011;64924;42.140;24.762;2023-12-20T01:56:20;44.42;;;26.90;;
73869;SDS011;64924;42.140;24.762;2023-12-20T01:58:46;48.03;;;27.70;;
73869;SDS011;64924;42.140;24.762;2023-12-20T02:01:13;52.47;;;28.73;;
73869;SDS011;64924;42.140;24.762;2023-12-20T02:03:41;44.55;;;27.50;;
73869;SDS011;64924;42.140;24.762;2023-12-20T02:06:07;45.28;;;25.85;;
73869;SDS011;64924;42.140;24.762;2023-12-20T02:08:34;43.40;;;23.52;;
73869;SDS011;64924;42.140;24.762;2023-12-20T02:11:00;36.38;;;21.35;;
73869;SDS011;64924;42.140;24.762;2023-12-20T02:13:25;30.48;;;17.70;;
73869;SDS011;64924;42.140;24.762;2023-12-20T02:15:51;30.23;;;17.63;;
73869;SDS011;64924;42.140;24.762;2023-12-20T02:18:17;27.77;;;16.10;;
73869;SDS011;64924;42.140;24.762;2023-12-20T02:20:43;26.20;;;15.23;;
73869;SDS011;64924;42.140;24.762;2023-12-20T02:23:08;29.45;;;15.35;;
73869;SDS011;64924;42.140;24.762;2023-12-20T02:25:34;30.38;;;15.88;;
73869;SDS011;64924;42.140;24.762;2023-12-20T02:27:59;30.27;;;15.15;;
73869;SDS011;64924;42.140;24.762;2023-12-20T02:30:26;29.15;;;14.85;;
73869;SDS011;64924;42.140;24.762;2023-12-20T02:32:51;30.75;;;14.25;;
73869;SDS011;64924;42.140;24.762;2023-12-20T02:35:18;29.92;;;14.85;;
73869;SDS011;64924;42.140;24.762;2023-12-20T02:37:43;28.95;;;14.50;;
73869;SDS011;64924;42.140;24.762;2023-12-20T02:40:09;32.28;;;16.95;;
73869;SDS011;64924;42.140;24.762;2023-12-20T02:42:35;33.08;;;16.80;;
73869;SDS011;64924;42.140;24.762;2023-12-20T02:45:01;26.48;;;15.48;;
73869;SDS011;64924;42.140;24.762;2023-12-20T02:47:26;31.20;;;15.65;;
73869;SDS011;64924;42.140;24.762;2023-12-20T02:49:51;33.95;;;16.88;;
73869;SDS011;64924;42.140;24.762;2023-12-20T02:52:18;31.83;;;18.80;;
73869;SDS011;64924;42.140;24.762;2023-12-20T02:54:43;37.53;;;19.88;;
73869;SDS011;64924;42.140;24.762;2023-12-20T02:57:09;44.95;;;23.42;;
73869;SDS011;64924;42.140;24.762;2023-12-20T02:59:34;59.35;;;26.90;;
73869;SDS011;64924;42.140;24.762;2023-12-20T03:01:59;49.42;;;24.13;;
73869;SDS011;64924;42.140;24.762;2023-12-20T03:04:25;51.92;;;25.77;;
73869;SDS011;64924;42.140;24.762;2023-12-20T03:06:50;51.17;;;25.08;;
73869;SDS011;64924;42.140;24.762;2023-12-20T03:09:16;45.55;;;23.90;;
73869;SDS011;64924;42.140;24.762;2023-12-20T03:11:41;48.70;;;22.95;;
73869;SDS011;64924;42.140;24.762;2023-12-20T03:14:07;50.30;;;22.80;;
73869;SDS011;64924;42.140;24.762;2023-12-20T03:16:32;42.05;;;22.10;;
73869;SDS011;64924;42.140;24.762;2023-12-20T03:18:58;41.17;;;21.83;;
73869;SDS011;64924;42.140;24.762;2023-12-20T03:21:23;38.50;;;20.52;;
73869;SDS011;64924;42.140;24.762;2023-12-20T03:23:49;39.38;;;21.80;;
73869;SDS011;64924;42.140;24.762;2023-12-20T03:26:14;37.08;;;20.02;;
73869;SDS011;64924;42.140;24.762;2023-12-20T03:28:40;38.00;;;20.85;;
73869;SDS011;64924;42.140;24.762;2023-12-20T03:31:05;39.40;;;20.77;;
73869;SDS011;64924;42.140;24.762;2023-12-20T03:33:31;36.53;;;20.35;;
73869;SDS011;64924;42.140;24.762;2023-12-20T03:35:56;39.97;;;20.40;;
73869;SDS011;64924;42.140;24.762;2023-12-20T03:38:22;37.97;;;20.63;;
73869;SDS011;64924;42.140;24.762;2023-12-20T03:40:49;40.28;;;20.90;;
73869;SDS011;64924;42.140;24.762;2023-12-20T03:43:15;42.15;;;22.00;;
73869;SDS011;64924;42.140;24.762;2023-12-20T03:45:41;38.67;;;20.52;;
73869;SDS011;64924;42.140;24.762;2023-12-20T03:48:07;36.47;;;20.60;;
73869;SDS011;64924;42.140;24.762;2023-12-20T03:50:32;35.78;;;19.48;;
73869;SDS011;64924;42.140;24.762;2023-12-20T03:52:59;39.50;;;19.77;;
73869;SDS011;64924;42.140;24.762;2023-12-20T03:55:24;35.20;;;19.40;;
73869;SDS011;64924;42.140;24.762;2023-12-20T03:57:50;40.30;;;19.77;;
73869;SDS011;64924;42.140;24.762;2023-12-20T04:00:15;36.08;;;19.83;;
73869;SDS011;64924;42.140;24.762;2023-12-20T04:02:41;33.65;;;18.85;;
73869;SDS011;64924;42.140;24.762;2023-12-20T04:05:07;34.53;;;19.38;;
73869;SDS011;64924;42.140;24.762;2023-12-20T04:07:33;35.60;;;19.45;;
73869;SDS011;64924;42.140;24.762;2023-12-20T04:10:00;36.20;;;19.73;;
73869;SDS011;64924;42.140;24.762;2023-12-20T04:12:26;37.33;;;21.10;;
73869;SDS011;64924;42.140;24.762;2023-12-20T04:14:52;35.58;;;19.67;;
73869;SDS011;64924;42.140;24.762;2023-12-20T04:17:17;35.80;;;20.02;;
73869;SDS011;64924;42.140;24.762;2023-12-20T04:19:43;32.10;;;18.65;;
73869;SDS011;64924;42.140;24.762;2023-12-20T04:22:08;34.33;;;19.52;;
73869;SDS011;64924;42.140;24.762;2023-12-20T04:24:34;33.78;;;19.67;;
73869;SDS011;64924;42.140;24.762;2023-12-20T04:27:00;36.60;;;18.85;;
73869;SDS011;64924;42.140;24.762;2023-12-20T04:29:26;33.70;;;18.58;;
73869;SDS011;64924;42.140;24.762;2023-12-20T04:31:51;32.42;;;20.23;;
73869;SDS011;64924;42.140;24.762;2023-12-20T04:34:17;40.25;;;21.23;;
73869;SDS011;64924;42.140;24.762;2023-12-20T04:36:43;36.90;;;19.63;;
73869;SDS011;64924;42.140;24.762;2023-12-20T04:39:08;31.55;;;20.40;;
73869;SDS011;64924;42.140;24.762;2023-12-20T04:41:34;40.92;;;19.85;;
73869;SDS011;64924;42.140;24.762;2023-12-20T04:43:59;37.70;;;20.52;;
73869;SDS011;64924;42.140;24.762;2023-12-20T04:46:25;39.75;;;20.73;;
73869;SDS011;64924;42.140;24.762;2023-12-20T04:48:51;36.78;;;19.77;;
73869;SDS011;64924;42.140;24.762;2023-12-20T04:51:16;37.40;;;19.95;;
73869;SDS011;64924;42.140;24.762;2023-12-20T04:53:42;35.67;;;20.92;;
73869;SDS011;64924;42.140;24.762;2023-12-20T04:56:07;32.55;;;19.58;;
73869;SDS011;64924;42.140;24.762;2023-12-20T04:58:33;35.80;;;19.88;;
73869;SDS011;64924;42.140;24.762;2023-12-20T05:00:58;33.25;;;19.25;;
73869;SDS011;64924;42.140;24.762;2023-12-20T05:03:24;32.20;;;20.10;;
73869;SDS011;64924;42.140;24.762;2023-12-20T05:05:49;34.40;;;19.85;;
73869;SDS011;64924;42.140;24.762;2023-12-20T05:08:15;38.25;;;21.27;;
73869;SDS011;64924;42.140;24.762;2023-12-20T05:10:40;34.60;;;20.00;;
73869;SDS011;64924;42.140;24.762;2023-12-20T05:13:06;40.70;;;20.90;;
73869;SDS011;64924;42.140;24.762;2023-12-20T05:15:31;31.08;;;20.70;;
73869;SDS011;64924;42.140;24.762;2023-12-20T05:17:57;34.05;;;19.95;;
73869;SDS011;64924;42.140;24.762;2023-12-20T05:20:22;36.50;;;21.15;;
73869;SDS011;64924;42.140;24.762;2023-12-20T05:22:48;37.08;;;21.10;;
73869;SDS011;64924;42.140;24.762;2023-12-20T05:25:13;36.22;;;20.27;;
73869;SDS011;64924;42.140;24.762;2023-12-20T05:27:39;34.78;;;20.08;;
73869;SDS011;64924;42.140;24.762;2023-12-20T05:30:05;30.90;;;20.30;;
73869;SDS011;64924;42.140;24.762;2023-12-20T05:32:31;37.45;;;22.23;;
73869;SDS011;64924;42.140;24.762;2023-12-20T05:34:56;43.08;;;24.75;;
73869;SDS011;64924;42.140;24.762;2023-12-20T05:37:22;38.90;;;22.45;;
73869;SDS011;64924;42.140;24.762;2023-12-20T05:39:47;38.50;;;22.02;;
73869;SDS011;64924;42.140;24.762;2023-12-20T05:42:13;38.85;;;21.55;;
73869;SDS011;64924;42.140;24.762;2023-12-20T05:44:38;37.67;;;21.67;;
73869;SDS011;64924;42.140;24.762;2023-12-20T05:47:03;39.53;;;22.42;;
73869;SDS011;64924;42.140;24.762;2023-12-20T05:49:29;41.63;;;22.73;;
73869;SDS011;64924;42.140;24.762;2023-12-20T05:51:54;37.53;;;22.67;;
73869;SDS011;64924;42.140;24.762;2023-12-20T05:54:20;37.30;;;22.48;;
73869;SDS011;64924;42.140;24.762;2023-12-20T05:56:46;42.03;;;23.02;;
73869;SDS011;64924;42.140;24.762;2023-12-20T05:59:12;40.20;;;23.08;;
73869;SDS011;64924;42.140;24.762;2023-12-20T06:01:37;35.55;;;21.92;;
73869;SDS011;64924;42.140;24.762;2023-12-20T06:04:03;42.63;;;24.92;;
73869;SDS011;64924;42.140;24.762;2023-12-20T06:06:29;43.63;;;24.40;;
73869;SDS011;64924;42.140;24.762;2023-12-20T06:08:55;45.38;;;27.63;;
73869;SDS011;64924;42.140;24.762;2023-12-20T06:11:21;44.80;;;24.83;;
73869;SDS011;64924;42.140;24.762;2023-12-20T06:13:46;41.75;;;23.25;;
73869;SDS011;64924;42.140;24.762;2023-12-20T06:16:12;43.45;;;24.80;;
73869;SDS011;64924;42.140;24.762;2023-12-20T06:18:37;48.25;;;25.70;;
73869;SDS011;64924;42.140;24.762;2023-12-20T06:21:03;48.03;;;24.75;;
73869;SDS011;64924;42.140;24.762;2023-12-20T06:23:29;44.78;;;23.67;;
73869;SDS011;64924;42.140;24.762;2023-12-20T06:25:54;41.85;;;23.20;;
73869;SDS011;64924;42.140;24.762;2023-12-20T06:28:20;43.72;;;24.33;;
73869;SDS011;64924;42.140;24.762;2023-12-20T06:30:45;60.50;;;32.70;;
73869;SDS011;64924;42.140;24.762;2023-12-20T06:33:14;52.85;;;28.80;;
73869;SDS011;64924;42.140;24.762;2023-12-20T06:35:39;43.90;;;24.50;;
73869;SDS011;64924;42.140;24.762;2023-12-20T06:38:05;33.22;;;19.48;;
73869;SDS011;64924;42.140;24.762;2023-12-20T06:40:30;28.13;;;17.75;;
73869;SDS011;64924;42.140;24.762;2023-12-20T06:42:56;31.48;;;17.70;;
73869;SDS011;64924;42.140;24.762;2023-12-20T06:45:21;26.98;;;17.08;;
73869;SDS011;64924;42.140;24.762;2023-12-20T06:47:47;30.92;;;18.13;;
73869;SDS011;64924;42.140;24.762;2023-12-20T06:50:12;28.90;;;17.63;;
73869;SDS011;64924;42.140;24.762;2023-12-20T06:52:38;30.65;;;16.40;;
73869;SDS011;64924;42.140;24.762;2023-12-20T06:55:03;25.58;;;16.05;;
73869;SDS011;64924;42.140;24.762;2023-12-20T06:57:29;30.42;;;15.88;;
73869;SDS011;64924;42.140;24.762;2023-12-20T06:59:55;24.20;;;15.18;;
73869;SDS011;64924;42.140;24.762;2023-12-20T07:02:20;26.25;;;16.73;;
73869;SDS011;64924;42.140;24.762;2023-12-20T07:04:47;24.10;;;15.30;;
73869;SDS011;64924;42.140;24.762;2023-12-20T07:07:13;28.13;;;15.60;;
73869;SDS011;64924;42.140;24.762;2023-12-20T07:09:38;26.60;;;16.15;;
73869;SDS011;64924;42.140;24.762;2023-12-20T07:12:06;24.58;;;15.40;;
73869;SDS011;64924;42.140;24.762;2023-12-20T07:14:31;23.02;;;14.98;;
73869;SDS011;64924;42.140;24.762;2023-12-20T07:16:57;24.88;;;15.48;;
73869;SDS011;64924;42.140;24.762;2023-12-20T07:19:22;27.35;;;15.52;;
73869;SDS011;64924;42.140;24.762;2023-12-20T07:21:48;23.80;;;14.90;;
73869;SDS011;64924;42.140;24.762;2023-12-20T07:24:13;22.92;;;14.63;;
73869;SDS011;64924;42.140;24.762;2023-12-20T07:26:38;21.77;;;14.50;;
73869;SDS011;64924;42.140;24.762;2023-12-20T07:29:05;20.50;;;13.93;;
73869;SDS011;64924;42.140;24.762;2023-12-20T07:31:31;20.70;;;13.10;;
73869;SDS011;64924;42.140;24.762;2023-12-20T07:33:57;20.35;;;11.98;;
73869;SDS011;64924;42.140;24.762;2023-12-20T07:36:23;22.10;;;13.82;;
73869;SDS011;64924;42.140;24.762;2023-12-20T07:38:48;24.63;;;14.30;;
73869;SDS011;64924;42.140;24.762;2023-12-20T07:41:14;24.00;;;13.38;;
73869;SDS011;64924;42.140;24.762;2023-12-20T07:43:41;17.52;;;12.88;;
73869;SDS011;64924;42.140;24.762;2023-12-20T07:46:07;22.80;;;14.30;;
73869;SDS011;64924;42.140;24.762;2023-12-20T07:48:34;19.75;;;14.02;;
73869;SDS011;64924;42.140;24.762;2023-12-20T07:51:00;21.77;;;15.30;;
73869;SDS011;64924;42.140;24.762;2023-12-20T07:53:26;21.45;;;14.07;;
73869;SDS011;64924;42.140;24.762;2023-12-20T07:55:52;24.60;;;13.85;;
73869;SDS011;64924;42.140;24.762;2023-12-20T07:58:18;21.52;;;13.20;;
73869;SDS011;64924;42.140;24.762;2023-12-20T08:00:43;21.38;;;13.77;;
73869;SDS011;64924;42.140;24.762;2023-12-20T08:03:09;16.77;;;12.15;;
73869;SDS011;64924;42.140;24.762;2023-12-20T08:05:34;19.08;;;13.02;;
73869;SDS011;64924;42.140;24.762;2023-12-20T08:08:00;16.83;;;12.38;;
73869;SDS011;64924;42.140;24.762;2023-12-20T08:10:25;17.30;;;12.25;;
73869;SDS011;64924;42.140;24.762;2023-12-20T08:12:52;19.35;;;12.88;;
73869;SDS011;64924;42.140;24.762;2023-12-20T08:15:17;21.55;;;14.60;;
73869;SDS011;64924;42.140;24.762;2023-12-20T08:17:43;19.25;;;13.18;;
73869;SDS011;64924;42.140;24.762;2023-12-20T08:20:08;21.33;;;13.13;;
73869;SDS011;64924;42.140;24.762;2023-12-20T08:22:34;20.65;;;12.93;;
73869;SDS011;64924;42.140;24.762;2023-12-20T08:24:59;19.33;;;12.77;;
73869;SDS011;64924;42.140;24.762;2023-12-20T08:27:25;19.70;;;13.60;;
73869;SDS011;64924;42.140;24.762;2023-12-20T08:29:51;18.27;;;12.55;;
73869;SDS011;64924;42.140;24.762;2023-12-20T08:32:16;20.70;;;13.52;;
73869;SDS011;64924;42.140;24.762;2023-12-20T08:34:41;25.73;;;13.18;;
73869;SDS011;64924;42.140;24.762;2023-12-20T08:37:07;17.73;;;12.05;;
73869;SDS011;64924;42.140;24.762;2023-12-20T08:39:32;19.60;;;13.48;;
73869;SDS011;64924;42.140;24.762;2023-12-20T08:41:58;22.05;;;14.90;;
73869;SDS011;64924;42.140;24.762;2023-12-20T08:44:24;28.45;;;14.88;;
73869;SDS011;64924;42.140;24.762;2023-12-20T08:46:49;22.73;;;15.27;;
73869;SDS011;64924;42.140;24.762;2023-12-20T08:49:15;24.13;;;16.92;;
73869;SDS011;64924;42.140;24.762;2023-12-20T08:51:40;24.38;;;16.23;;
73869;SDS011;64924;42.140;24.762;2023-12-20T08:54:07;24.92;;;16.85;;
73869;SDS011;64924;42.140;24.762;2023-12-20T08:56:35;20.17;;;14.68;;
73869;SDS011;64924;42.140;24.762;2023-12-20T08:59:01;23.40;;;14.63;;
73869;SDS011;64924;42.140;24.762;2023-12-20T09:01:26;41.33;;;25.67;;
73869;SDS011;64924;42.140;24.762;2023-12-20T09:03:51;25.85;;;17.95;;
73869;SDS011;64924;42.140;24.762;2023-12-20T09:06:17;23.50;;;15.27;;
73869;SDS011;64924;42.140;24.762;2023-12-20T09:08:42;26.15;;;15.57;;
73869;SDS011;64924;42.140;24.762;2023-12-20T09:11:08;24.08;;;14.88;;
73869;SDS011;64924;42.140;24.762;2023-12-20T09:13:33;23.92;;;15.68;;
73869;SDS011;64924;42.140;24.762;2023-12-20T09:15:59;20.95;;;14.75;;
73869;SDS011;64924;42.140;24.762;2023-12-20T09:18:24;23.40;;;15.50;;
73869;SDS011;64924;42.140;24.762;2023-12-20T09:20:50;26.60;;;15.65;;
73869;SDS011;64924;42.140;24.762;2023-12-20T09:23:15;22.75;;;16.15;;
73869;SDS011;64924;42.140;24.762;2023-12-20T09:25:42;25.17;;;16.60;;
73869;SDS011;64924;42.140;24.762;2023-12-20T09:28:08;23.38;;;14.88;;
73869;SDS011;64924;42.140;24.762;2023-12-20T09:30:33;25.35;;;15.38;;
73869;SDS011;64924;42.140;24.762;2023-12-20T09:33:00;26.65;;;17.50;;
73869;SDS011;64924;42.140;24.762;2023-12-20T09:35:25;20.90;;;15.75;;
73869;SDS011;64924;42.140;24.762;2023-12-20T09:37:51;20.45;;;15.05;;
73869;SDS011;64924;42.140;24.762;2023-12-20T09:40:19;22.13;;;14.85;;
73869;SDS011;64924;42.140;24.762;2023-12-20T09:42:58;25.45;;;15.85;;
73869;SDS011;64924;42.140;24.762;2023-12-20T09:45:35;28.15;;;17.23;;
73869;SDS011;64924;42.140;24.762;2023-12-20T09:48:01;30.48;;;17.58;;
73869;SDS011;64924;42.140;24.762;2023-12-20T09:50:30;34.88;;;21.73;;
73869;SDS011;64924;42.140;24.762;2023-12-20T09:52:57;29.23;;;18.88;;
73869;SDS011;64924;42.140;24.762;2023-12-20T09:55:24;23.67;;;17.20;;
73869;SDS011;64924;42.140;24.762;2023-12-20T09:57:50;25.00;;;16.58;;
73869;SDS011;64924;42.140;24.762;2023-12-20T10:00:16;26.95;;;15.52;;
73869;SDS011;64924;42.140;24.762;2023-12-20T10:02:50;24.27;;;17.55;;
73869;SDS011;64924;42.140;24.762;2023-12-20T10:05:22;26.63;;;16.35;;
73869;SDS011;64924;42.140;24.762;2023-12-20T10:07:52;24.35;;;14.73;;
73869;SDS011;64924;42.140;24.762;2023-12-20T10:10:17;20.42;;;13.45;;
73869;SDS011;64924;42.140;24.762;2023-12-20T10:13:00;20.05;;;13.60;;
73869;SDS011;64924;42.140;24.762;2023-12-20T10:15:30;22.33;;;14.32;;
73869;SDS011;64924;42.140;24.762;2023-12-20T10:17:57;20.60;;;14.32;;
73869;SDS011;64924;42.140;24.762;2023-12-20T10:20:23;22.23;;;15.35;;
73869;SDS011;64924;42.140;24.762;2023-12-20T10:22:49;21.00;;;14.23;;
73869;SDS011;64924;42.140;24.762;2023-12-20T10:25:14;26.38;;;14.45;;
73869;SDS011;64924;42.140;24.762;2023-12-20T10:27:40;21.42;;;13.05;;
73869;SDS011;64924;42.140;24.762;2023-12-20T10:30:05;28.23;;;15.23;;
73869;SDS011;64924;42.140;24.762;2023-12-20T10:32:31;27.13;;;16.17;;
73869;SDS011;64924;42.140;24.762;2023-12-20T10:34:57;18.17;;;12.38;;
73869;SDS011;64924;42.140;24.762;2023-12-20T10:37:24;20.50;;;12.13;;
73869;SDS011;64924;42.140;24.762;2023-12-20T10:39:50;19.48;;;12.38;;
73869;SDS011;64924;42.140;24.762;2023-12-20T10:42:20;19.50;;;12.48;;
73869;SDS011;64924;42.140;24.762;2023-12-20T10:44:47;21.20;;;13.23;;
73869;SDS011;64924;42.140;24.762;2023-12-20T10:47:13;18.30;;;12.48;;
73869;SDS011;64924;42.140;24.762;2023-12-20T10:49:40;20.52;;;13.30;;
73869;SDS011;64924;42.140;24.762;2023-12-20T10:52:07;24.98;;;14.02;;
73869;SDS011;64924;42.140;24.762;2023-12-20T10:54:34;21.27;;;13.07;;
73869;SDS011;64924;42.140;24.762;2023-12-20T10:56:59;21.17;;;13.27;;
73869;SDS011;64924;42.140;24.762;2023-12-20T10:59:30;21.15;;;13.93;;
73869;SDS011;64924;42.140;24.762;2023-12-20T11:01:58;22.40;;;12.45;;
73869;SDS011;64924;42.140;24.762;2023-12-20T11:04:28;22.63;;;13.68;;
73869;SDS011;64924;42.140;24.762;2023-12-20T11:07:15;27.40;;;12.68;;
73869;SDS011;64924;42.140;24.762;2023-12-20T11:09:57;22.05;;;13.05;;
73869;SDS011;64924;42.140;24.762;2023-12-20T11:12:32;19.67;;;12.32;;
73869;SDS011;64924;42.140;24.762;2023-12-20T11:15:05;19.35;;;12.38;;
73869;SDS011;64924;42.140;24.762;2023-12-20T11:17:32;18.48;;;11.80;;
73869;SDS011;64924;42.140;24.762;2023-12-20T11:22:27;20.77;;;11.75;;
73869;SDS011;64924;42.140;24.762;2023-12-20T11:24:59;23.50;;;14.07;;
73869;SDS011;64924;42.140;24.762;2023-12-20T11:27:30;22.33;;;13.20;;
73869;SDS011;64924;42.140;24.762;2023-12-20T11:29:56;23.00;;;13.73;;
73869;SDS011;64924;42.140;24.762;2023-12-20T11:34:57;23.63;;;11.98;;
73869;SDS011;64924;42.140;24.762;2023-12-20T11:37:31;20.38;;;13.35;;
73869;SDS011;64924;42.140;24.762;2023-12-20T11:42:37;29.33;;;14.68;;
73869;SDS011;64924;42.140;24.762;2023-12-20T11:45:04;30.73;;;13.95;;
73869;SDS011;64924;42.140;24.762;2023-12-20T11:47:30;33.85;;;15.38;;
73869;SDS011;64924;42.140;24.762;2023-12-20T11:49:57;27.02;;;14.30;;
73869;SDS011;64924;42.140;24.762;2023-12-20T11:52:22;23.85;;;14.32;;
73869;SDS011;64924;42.140;24.762;2023-12-20T11:54:48;33.72;;;15.80;;
73869;SDS011;64924;42.140;24.762;2023-12-20T11:57:13;40.25;;;17.15;;
73869;SDS011;64924;42.140;24.762;2023-12-20T11:59:39;49.13;;;17.20;;
73869;SDS011;64924;42.140;24.762;2023-12-20T12:02:04;36.83;;;17.40;;
73869;SDS011;64924;42.140;24.762;2023-12-20T12:04:31;36.22;;;17.58;;
73869;SDS011;64924;42.140;24.762;2023-12-20T12:06:56;35.78;;;18.15;;
73869;SDS011;64924;42.140;24.762;2023-12-20T12:09:22;39.17;;;19.67;;
73869;SDS011;64924;42.140;24.762;2023-12-20T12:11:47;37.53;;;20.65;;
73869;SDS011;64924;42.140;24.762;2023-12-20T12:14:13;40.50;;;22.10;;
73869;SDS011;64924;42.140;24.762;2023-12-20T12:16:39;45.35;;;23.63;;
73869;SDS011;64924;42.140;24.762;2023-12-20T12:19:06;41.13;;;23.13;;
73869;SDS011;64924;42.140;24.762;2023-12-20T12:21:32;45.50;;;25.20;;
73869;SDS011;64924;42.140;24.762;2023-12-20T12:24:07;46.30;;;26.60;;
73869;SDS011;64924;42.140;24.762;2023-12-20T12:26:33;50.40;;;27.77;;
73869;SDS011;64924;42.140;24.762;2023-12-20T12:28:59;51.85;;;27.85;;
73869;SDS011;64924;42.140;24.762;2023-12-20T12:31:24;43.33;;;26.73;;
73869;SDS011;64924;42.140;24.762;2023-12-20T12:33:51;45.10;;;28.13;;
73869;SDS011;64924;42.140;24.762;2023-12-20T12:36:17;56.40;;;28.23;;
73869;SDS011;64924;42.140;24.762;2023-12-20T12:38:43;53.08;;;27.75;;
73869;SDS011;64924;42.140;24.762;2023-12-20T12:41:09;54.85;;;28.77;;
73869;SDS011;64924;42.140;24.762;2023-12-20T12:43:35;45.15;;;27.75;;
73869;SDS011;64924;42.140;24.762;2023-12-20T12:46:01;44.60;;;27.10;;
73869;SDS011;64924;42.140;24.762;2023-12-20T12:48:27;62.75;;;27.38;;
73869;SDS011;64924;42.140;24.762;2023-12-20T12:50:53;52.97;;;26.40;;
73869;SDS011;64924;42.140;24.762;2023-12-20T12:53:19;45.63;;;25.15;;
73869;SDS011;64924;42.140;24.762;2023-12-20T12:55:45;38.55;;;24.63;;
73869;SDS011;64924;42.140;24.762;2023-12-20T12:58:11;43.47;;;24.30;;
73869;SDS011;64924;42.140;24.762;2023-12-20T13:00:36;42.13;;;24.70;;
73869;SDS011;64924;42.140;24.762;2023-12-20T13:03:02;44.40;;;25.95;;
73869;SDS011;64924;42.140;24.762;2023-12-20T13:05:28;45.97;;;24.45;;
73869;SDS011;64924;42.140;24.762;2023-12-20T13:07:55;45.53;;;24.55;;
73869;SDS011;64924;42.140;24.762;2023-12-20T13:10:21;52.85;;;23.58;;
73869;SDS011;64924;42.140;24.762;2023-12-20T13:12:47;40.47;;;25.33;;
73869;SDS011;64924;42.140;24.762;2023-12-20T13:15:12;44.28;;;24.23;;
73869;SDS011;64924;42.140;24.762;2023-12-20T13:17:37;52.47;;;25.58;;
73869;SDS011;64924;42.140;24.762;2023-12-20T13:20:03;45.20;;;24.20;;
73869;SDS011;64924;42.140;24.762;2023-12-20T13:22:29;47.67;;;26.02;;
73869;SDS011;64924;42.140;24.762;2023-12-20T13:24:55;42.70;;;24.55;;
73869;SDS011;64924;42.140;24.762;2023-12-20T13:27:20;45.05;;;23.83;;
73869;SDS011;64924;42.140;24.762;2023-12-20T13:29:45;41.58;;;23.27;;
73869;SDS011;64924;42.140;24.762;2023-12-20T13:32:11;46.67;;;24.92;;
73869;SDS011;64924;42.140;24.762;2023-12-20T13:34:36;37.42;;;23.73;;
73869;SDS011;64924;42.140;24.762;2023-12-20T13:37:02;41.60;;;23.85;;
73869;SDS011;64924;42.140;24.762;2023-12-20T13:39:28;44.17;;;23.20;;
73869;SDS011;64924;42.140;24.762;2023-12-20T13:41:53;38.80;;;22.05;;
73869;SDS011;64924;42.140;24.762;2023-12-20T13:44:19;50.13;;;24.90;;
73869;SDS011;64924;42.140;24.762;2023-12-20T13:46:44;42.13;;;24.00;;
73869;SDS011;64924;42.140;24.762;2023-12-20T13:49:11;44.63;;;25.98;;
73869;SDS011;64924;42.140;24.762;2023-12-20T13:51:37;60.70;;;26.48;;
73869;SDS011;64924;42.140;24.762;2023-12-20T13:54:03;52.47;;;26.33;;
73869;SDS011;64924;42.140;24.762;2023-12-20T13:56:29;47.97;;;26.48;;
73869;SDS011;64924;42.140;24.762;2023-12-20T13:58:54;60.95;;;27.58;;
73869;SDS011;64924;42.140;24.762;2023-12-20T14:01:20;62.22;;;27.73;;
73869;SDS011;64924;42.140;24.762;2023-12-20T14:03:45;61.20;;;27.88;;
73869;SDS011;64924;42.140;24.762;2023-12-20T14:06:11;59.47;;;29.98;;
73869;SDS011;64924;42.140;24.762;2023-12-20T14:08:36;61.35;;;30.35;;
73869;SDS011;64924;42.140;24.762;2023-12-20T14:11:02;58.70;;;26.90;;